sensor_id;sensor_type;location;lat;lon;timestamp;P1;durP1;ratioP1;P2;durP2;ratioP2
7661;SDS011;30314;48.184;11.510;2022-10-31T00:01:30;19.43;;;7.93;;
7661;SDS011;30314;48.184;11.510;2022-10-31T00:03:59;16.10;;;8.23;;
7661;SDS011;30314;48.184;11.510;2022-10-31T00:06:28;13.57;;;6.83;;
7661;SDS011;30314;48.184;11.510;2022-10-31T00:08:57;17.37;;;8.20;;
7661;SDS011;30314;48.184;11.510;2022-10-31T00:11:28;23.30;;;7.87;;
7661;SDS011;30314;48.184;11.510;2022-10-31T00:13:56;15.57;;;6.70;;
7661;SDS011;30314;48.184;11.510;2022-10-31T00:16:25;17.00;;;7.00;;
7661;SDS011;30314;48.184;11.510;2022-10-31T00:18:54;21.50;;;7.83;;
7661;SDS011;30314;48.184;11.510;2022-10-31T00:21:23;18.03;;;6.03;;
7661;SDS011;30314;48.184;11.510;2022-10-31T00:23:51;11.17;;;6.73;;
7661;SDS011;30314;48.184;11.510;2022-10-31T00:26:20;16.27;;;6.10;;
7661;SDS011;30314;48.184;11.510;2022-10-31T00:28:48;11.30;;;6.57;;
7661;SDS011;30314;48.184;11.510;2022-10-31T00:31:17;10.30;;;6.33;;
7661;SDS011;30314;48.184;11.510;2022-10-31T00:33:45;12.90;;;5.97;;
7661;SDS011;30314;48.184;11.510;2022-10-31T00:36:17;18.50;;;6.00;;
7661;SDS011;30314;48.184;11.510;2022-10-31T00:38:46;10.77;;;6.00;;
7661;SDS011;30314;48.184;11.510;2022-10-31T00:41:15;11.40;;;5.13;;
7661;SDS011;30314;48.184;11.510;2022-10-31T00:43:45;12.53;;;4.93;;
7661;SDS011;30314;48.184;11.510;2022-10-31T00:46:14;13.63;;;5.40;;
7661;SDS011;30314;48.184;11.510;2022-10-31T00:48:41;10.13;;;5.07;;
7661;SDS011;30314;48.184;11.510;2022-10-31T00:51:09;12.50;;;5.77;;
7661;SDS011;30314;48.184;11.510;2022-10-31T00:53:39;9.23;;;4.97;;
7661;SDS011;30314;48.184;11.510;2022-10-31T00:56:07;20.50;;;6.43;;
7661;SDS011;30314;48.184;11.510;2022-10-31T00:58:35;11.43;;;6.00;;
7661;SDS011;30314;48.184;11.510;2022-10-31T01:01:04;14.13;;;4.90;;
7661;SDS011;30314;48.184;11.510;2022-10-31T01:03:33;13.07;;;5.57;;
7661;SDS011;30314;48.184;11.510;2022-10-31T01:06:03;31.93;;;6.13;;
7661;SDS011;30314;48.184;11.510;2022-10-31T01:08:32;12.40;;;5.67;;
7661;SDS011;30314;48.184;11.510;2022-10-31T01:11:01;12.27;;;5.57;;
7661;SDS011;30314;48.184;11.510;2022-10-31T01:13:31;23.53;;;6.33;;
7661;SDS011;30314;48.184;11.510;2022-10-31T01:16:01;14.60;;;6.23;;
7661;SDS011;30314;48.184;11.510;2022-10-31T01:18:33;10.73;;;6.00;;
7661;SDS011;30314;48.184;11.510;2022-10-31T01:21:02;14.00;;;5.70;;
7661;SDS011;30314;48.184;11.510;2022-10-31T01:23:31;11.33;;;4.70;;
7661;SDS011;30314;48.184;11.510;2022-10-31T01:26:00;10.70;;;5.03;;
7661;SDS011;30314;48.184;11.510;2022-10-31T01:28:31;16.93;;;5.20;;
7661;SDS011;30314;48.184;11.510;2022-10-31T01:31:03;15.77;;;5.60;;
7661;SDS011;30314;48.184;11.510;2022-10-31T01:33:35;16.93;;;4.93;;
7661;SDS011;30314;48.184;11.510;2022-10-31T01:36:11;12.80;;;4.50;;
7661;SDS011;30314;48.184;11.510;2022-10-31T01:38:41;11.77;;;5.40;;
7661;SDS011;30314;48.184;11.510;2022-10-31T01:41:09;12.53;;;5.47;;
7661;SDS011;30314;48.184;11.510;2022-10-31T01:43:42;11.70;;;6.80;;
7661;SDS011;30314;48.184;11.510;2022-10-31T01:46:11;13.80;;;5.20;;
7661;SDS011;30314;48.184;11.510;2022-10-31T01:48:41;15.80;;;6.33;;
7661;SDS011;30314;48.184;11.510;2022-10-31T01:51:10;14.03;;;5.80;;
7661;SDS011;30314;48.184;11.510;2022-10-31T01:53:41;8.20;;;4.70;;
7661;SDS011;30314;48.184;11.510;2022-10-31T01:56:11;17.67;;;5.30;;
7661;SDS011;30314;48.184;11.510;2022-10-31T01:58:40;19.53;;;5.90;;
7661;SDS011;30314;48.184;11.510;2022-10-31T02:01:09;17.50;;;5.20;;
7661;SDS011;30314;48.184;11.510;2022-10-31T02:03:37;15.30;;;6.27;;
7661;SDS011;30314;48.184;11.510;2022-10-31T02:06:08;20.67;;;5.07;;
7661;SDS011;30314;48.184;11.510;2022-10-31T02:08:41;14.73;;;5.37;;
7661;SDS011;30314;48.184;11.510;2022-10-31T02:11:10;13.70;;;5.63;;
7661;SDS011;30314;48.184;11.510;2022-10-31T02:13:40;13.40;;;5.87;;
7661;SDS011;30314;48.184;11.510;2022-10-31T02:16:08;20.93;;;5.33;;
7661;SDS011;30314;48.184;11.510;2022-10-31T02:18:37;18.80;;;5.20;;
7661;SDS011;30314;48.184;11.510;2022-10-31T02:21:10;13.57;;;4.97;;
7661;SDS011;30314;48.184;11.510;2022-10-31T02:23:50;12.70;;;5.80;;
7661;SDS011;30314;48.184;11.510;2022-10-31T02:26:41;11.37;;;4.93;;
7661;SDS011;30314;48.184;11.510;2022-10-31T02:29:24;10.90;;;4.67;;
7661;SDS011;30314;48.184;11.510;2022-10-31T02:32:17;12.00;;;3.93;;
7661;SDS011;30314;48.184;11.510;2022-10-31T02:34:55;8.90;;;4.43;;
7661;SDS011;30314;48.184;11.510;2022-10-31T02:37:32;11.80;;;4.60;;
7661;SDS011;30314;48.184;11.510;2022-10-31T02:40:09;11.00;;;5.37;;
7661;SDS011;30314;48.184;11.510;2022-10-31T02:43:06;11.23;;;5.27;;
7661;SDS011;30314;48.184;11.510;2022-10-31T02:45:46;10.87;;;5.23;;
7661;SDS011;30314;48.184;11.510;2022-10-31T02:48:21;11.63;;;4.40;;
7661;SDS011;30314;48.184;11.510;2022-10-31T02:50:55;10.13;;;4.13;;
7661;SDS011;30314;48.184;11.510;2022-10-31T02:53:25;16.30;;;4.77;;
7661;SDS011;30314;48.184;11.510;2022-10-31T02:55:59;9.03;;;5.37;;
7661;SDS011;30314;48.184;11.510;2022-10-31T02:58:30;10.80;;;4.70;;
7661;SDS011;30314;48.184;11.510;2022-10-31T03:01:10;8.53;;;4.53;;
7661;SDS011;30314;48.184;11.510;2022-10-31T03:03:56;18.77;;;5.40;;
7661;SDS011;30314;48.184;11.510;2022-10-31T03:06:35;12.50;;;4.90;;
7661;SDS011;30314;48.184;11.510;2022-10-31T03:09:09;10.33;;;5.30;;
7661;SDS011;30314;48.184;11.510;2022-10-31T03:11:47;8.60;;;4.70;;
7661;SDS011;30314;48.184;11.510;2022-10-31T03:14:24;13.80;;;4.80;;
7661;SDS011;30314;48.184;11.510;2022-10-31T03:16:58;14.93;;;4.80;;
7661;SDS011;30314;48.184;11.510;2022-10-31T03:19:33;13.70;;;4.83;;
7661;SDS011;30314;48.184;11.510;2022-10-31T03:22:07;10.10;;;5.23;;
7661;SDS011;30314;48.184;11.510;2022-10-31T03:24:42;11.67;;;4.50;;
7661;SDS011;30314;48.184;11.510;2022-10-31T03:27:14;15.83;;;5.23;;
7661;SDS011;30314;48.184;11.510;2022-10-31T03:29:45;6.90;;;3.87;;
7661;SDS011;30314;48.184;11.510;2022-10-31T03:32:17;11.60;;;5.20;;
7661;SDS011;30314;48.184;11.510;2022-10-31T03:34:52;14.47;;;5.03;;
7661;SDS011;30314;48.184;11.510;2022-10-31T03:37:24;17.40;;;5.37;;
7661;SDS011;30314;48.184;11.510;2022-10-31T03:39:55;13.17;;;4.63;;
7661;SDS011;30314;48.184;11.510;2022-10-31T03:42:27;8.67;;;4.10;;
7661;SDS011;30314;48.184;11.510;2022-10-31T03:44:59;11.10;;;4.40;;
7661;SDS011;30314;48.184;11.510;2022-10-31T03:47:30;16.33;;;4.57;;
7661;SDS011;30314;48.184;11.510;2022-10-31T03:50:00;9.57;;;5.13;;
7661;SDS011;30314;48.184;11.510;2022-10-31T03:52:28;13.53;;;4.47;;
7661;SDS011;30314;48.184;11.510;2022-10-31T03:55:05;9.60;;;4.40;;
7661;SDS011;30314;48.184;11.510;2022-10-31T03:57:38;9.20;;;4.70;;
7661;SDS011;30314;48.184;11.510;2022-10-31T04:00:09;8.83;;;5.03;;
7661;SDS011;30314;48.184;11.510;2022-10-31T04:02:45;12.20;;;5.37;;
7661;SDS011;30314;48.184;11.510;2022-10-31T04:05:20;12.10;;;4.17;;
7661;SDS011;30314;48.184;11.510;2022-10-31T04:07:50;13.20;;;4.77;;
7661;SDS011;30314;48.184;11.510;2022-10-31T04:10:20;8.57;;;4.70;;
7661;SDS011;30314;48.184;11.510;2022-10-31T04:13:00;10.53;;;4.40;;
7661;SDS011;30314;48.184;11.510;2022-10-31T04:15:38;18.13;;;4.67;;
7661;SDS011;30314;48.184;11.510;2022-10-31T04:18:08;9.03;;;4.30;;
7661;SDS011;30314;48.184;11.510;2022-10-31T04:20:38;6.40;;;4.37;;
7661;SDS011;30314;48.184;11.510;2022-10-31T04:23:13;13.00;;;4.37;;
7661;SDS011;30314;48.184;11.510;2022-10-31T04:25:47;8.00;;;4.10;;
7661;SDS011;30314;48.184;11.510;2022-10-31T04:28:16;8.30;;;4.73;;
7661;SDS011;30314;48.184;11.510;2022-10-31T04:30:44;9.43;;;4.10;;
7661;SDS011;30314;48.184;11.510;2022-10-31T04:33:12;18.63;;;4.80;;
7661;SDS011;30314;48.184;11.510;2022-10-31T04:35:43;16.30;;;4.60;;
7661;SDS011;30314;48.184;11.510;2022-10-31T04:38:11;12.70;;;4.20;;
7661;SDS011;30314;48.184;11.510;2022-10-31T04:40:40;12.20;;;5.17;;
7661;SDS011;30314;48.184;11.510;2022-10-31T04:43:28;17.43;;;4.17;;
7661;SDS011;30314;48.184;11.510;2022-10-31T04:45:58;13.03;;;4.20;;
7661;SDS011;30314;48.184;11.510;2022-10-31T04:48:27;12.30;;;4.40;;
7661;SDS011;30314;48.184;11.510;2022-10-31T04:50:59;13.50;;;4.60;;
7661;SDS011;30314;48.184;11.510;2022-10-31T04:53:27;11.60;;;4.23;;
7661;SDS011;30314;48.184;11.510;2022-10-31T04:56:19;14.60;;;4.60;;
7661;SDS011;30314;48.184;11.510;2022-10-31T04:58:52;12.60;;;4.97;;
7661;SDS011;30314;48.184;11.510;2022-10-31T05:01:21;11.40;;;5.10;;
7661;SDS011;30314;48.184;11.510;2022-10-31T05:03:49;8.60;;;4.70;;
7661;SDS011;30314;48.184;11.510;2022-10-31T05:06:18;11.63;;;4.60;;
7661;SDS011;30314;48.184;11.510;2022-10-31T05:08:46;9.80;;;5.03;;
7661;SDS011;30314;48.184;11.510;2022-10-31T05:11:14;10.47;;;5.50;;
7661;SDS011;30314;48.184;11.510;2022-10-31T05:13:43;13.60;;;4.83;;
7661;SDS011;30314;48.184;11.510;2022-10-31T05:16:11;8.00;;;4.03;;
7661;SDS011;30314;48.184;11.510;2022-10-31T05:19:01;12.20;;;5.27;;
7661;SDS011;30314;48.184;11.510;2022-10-31T05:21:56;14.53;;;4.33;;
7661;SDS011;30314;48.184;11.510;2022-10-31T05:24:24;11.73;;;4.40;;
7661;SDS011;30314;48.184;11.510;2022-10-31T05:26:52;11.43;;;5.13;;
7661;SDS011;30314;48.184;11.510;2022-10-31T05:29:19;14.10;;;5.57;;
7661;SDS011;30314;48.184;11.510;2022-10-31T05:31:47;9.03;;;4.70;;
7661;SDS011;30314;48.184;11.510;2022-10-31T05:34:37;8.43;;;4.60;;
7661;SDS011;30314;48.184;11.510;2022-10-31T05:37:25;8.53;;;4.43;;
7661;SDS011;30314;48.184;11.510;2022-10-31T05:39:53;15.13;;;4.70;;
7661;SDS011;30314;48.184;11.510;2022-10-31T05:42:21;13.10;;;4.70;;
7661;SDS011;30314;48.184;11.510;2022-10-31T05:44:48;14.30;;;5.00;;
7661;SDS011;30314;48.184;11.510;2022-10-31T05:47:23;12.43;;;5.00;;
7661;SDS011;30314;48.184;11.510;2022-10-31T05:49:54;12.10;;;5.10;;
7661;SDS011;30314;48.184;11.510;2022-10-31T05:52:56;11.53;;;5.40;;
7661;SDS011;30314;48.184;11.510;2022-10-31T05:55:33;18.83;;;5.80;;
7661;SDS011;30314;48.184;11.510;2022-10-31T05:58:09;9.50;;;5.00;;
7661;SDS011;30314;48.184;11.510;2022-10-31T06:00:41;7.60;;;4.67;;
7661;SDS011;30314;48.184;11.510;2022-10-31T06:03:10;16.37;;;5.87;;
7661;SDS011;30314;48.184;11.510;2022-10-31T06:05:46;10.77;;;5.57;;
7661;SDS011;30314;48.184;11.510;2022-10-31T06:08:23;10.90;;;4.33;;
7661;SDS011;30314;48.184;11.510;2022-10-31T06:10:53;14.07;;;5.50;;
7661;SDS011;30314;48.184;11.510;2022-10-31T06:13:41;8.60;;;4.47;;
7661;SDS011;30314;48.184;11.510;2022-10-31T06:16:16;8.70;;;4.43;;
7661;SDS011;30314;48.184;11.510;2022-10-31T06:18:45;8.80;;;4.23;;
7661;SDS011;30314;48.184;11.510;2022-10-31T06:21:12;10.47;;;5.10;;
7661;SDS011;30314;48.184;11.510;2022-10-31T06:23:46;8.33;;;4.80;;
7661;SDS011;30314;48.184;11.510;2022-10-31T06:26:25;10.90;;;4.87;;
7661;SDS011;30314;48.184;11.510;2022-10-31T06:28:53;9.50;;;5.43;;
7661;SDS011;30314;48.184;11.510;2022-10-31T06:31:43;8.63;;;5.00;;
7661;SDS011;30314;48.184;11.510;2022-10-31T06:34:11;12.17;;;5.43;;
7661;SDS011;30314;48.184;11.510;2022-10-31T06:36:40;14.93;;;5.43;;
7661;SDS011;30314;48.184;11.510;2022-10-31T06:39:09;8.53;;;5.00;;
7661;SDS011;30314;48.184;11.510;2022-10-31T06:41:37;21.00;;;5.87;;
7661;SDS011;30314;48.184;11.510;2022-10-31T06:44:05;10.43;;;5.87;;
7661;SDS011;30314;48.184;11.510;2022-10-31T06:46:53;14.07;;;6.53;;
7661;SDS011;30314;48.184;11.510;2022-10-31T06:49:44;10.23;;;4.93;;
7661;SDS011;30314;48.184;11.510;2022-10-31T06:52:15;13.10;;;5.07;;
7661;SDS011;30314;48.184;11.510;2022-10-31T06:54:44;18.70;;;5.27;;
7661;SDS011;30314;48.184;11.510;2022-10-31T06:57:12;17.60;;;5.70;;
7661;SDS011;30314;48.184;11.510;2022-10-31T06:59:40;14.87;;;6.03;;
7661;SDS011;30314;48.184;11.510;2022-10-31T07:02:20;17.60;;;6.40;;
7661;SDS011;30314;48.184;11.510;2022-10-31T07:04:49;13.90;;;5.60;;
7661;SDS011;30314;48.184;11.510;2022-10-31T07:07:17;8.80;;;5.10;;
7661;SDS011;30314;48.184;11.510;2022-10-31T07:09:48;13.77;;;6.30;;
7661;SDS011;30314;48.184;11.510;2022-10-31T07:12:20;10.33;;;5.90;;
7661;SDS011;30314;48.184;11.510;2022-10-31T07:14:55;11.57;;;4.60;;
7661;SDS011;30314;48.184;11.510;2022-10-31T07:17:23;11.60;;;5.30;;
7661;SDS011;30314;48.184;11.510;2022-10-31T07:19:57;7.60;;;5.23;;
7661;SDS011;30314;48.184;11.510;2022-10-31T07:22:25;15.93;;;6.17;;
7661;SDS011;30314;48.184;11.510;2022-10-31T07:25:03;18.13;;;6.40;;
7661;SDS011;30314;48.184;11.510;2022-10-31T07:27:50;10.53;;;5.20;;
7661;SDS011;30314;48.184;11.510;2022-10-31T07:30:18;8.50;;;4.60;;
7661;SDS011;30314;48.184;11.510;2022-10-31T07:32:49;12.53;;;4.87;;
7661;SDS011;30314;48.184;11.510;2022-10-31T07:35:19;13.73;;;6.23;;
7661;SDS011;30314;48.184;11.510;2022-10-31T07:37:54;13.23;;;6.20;;
7661;SDS011;30314;48.184;11.510;2022-10-31T07:40:25;8.33;;;5.33;;
7661;SDS011;30314;48.184;11.510;2022-10-31T07:42:53;9.50;;;5.63;;
7661;SDS011;30314;48.184;11.510;2022-10-31T07:45:43;15.70;;;7.27;;
7661;SDS011;30314;48.184;11.510;2022-10-31T07:48:29;14.27;;;6.00;;
7661;SDS011;30314;48.184;11.510;2022-10-31T07:51:35;14.60;;;6.43;;
7661;SDS011;30314;48.184;11.510;2022-10-31T07:54:41;13.13;;;6.53;;
7661;SDS011;30314;48.184;11.510;2022-10-31T07:57:10;18.30;;;7.30;;
7661;SDS011;30314;48.184;11.510;2022-10-31T07:59:38;11.00;;;6.50;;
7661;SDS011;30314;48.184;11.510;2022-10-31T08:02:07;15.13;;;7.43;;
7661;SDS011;30314;48.184;11.510;2022-10-31T08:04:58;15.20;;;7.67;;
7661;SDS011;30314;48.184;11.510;2022-10-31T08:07:28;17.00;;;7.00;;
7661;SDS011;30314;48.184;11.510;2022-10-31T08:10:02;11.37;;;7.00;;
7661;SDS011;30314;48.184;11.510;2022-10-31T08:12:32;16.73;;;7.83;;
7661;SDS011;30314;48.184;11.510;2022-10-31T08:15:00;14.00;;;8.10;;
7661;SDS011;30314;48.184;11.510;2022-10-31T08:17:28;18.10;;;8.17;;
7661;SDS011;30314;48.184;11.510;2022-10-31T08:19:58;14.93;;;7.10;;
7661;SDS011;30314;48.184;11.510;2022-10-31T08:22:31;14.07;;;7.80;;
7661;SDS011;30314;48.184;11.510;2022-10-31T08:25:00;12.70;;;7.93;;
7661;SDS011;30314;48.184;11.510;2022-10-31T08:27:28;21.27;;;8.63;;
7661;SDS011;30314;48.184;11.510;2022-10-31T08:30:00;19.83;;;9.53;;
7661;SDS011;30314;48.184;11.510;2022-10-31T08:32:28;22.23;;;9.77;;
7661;SDS011;30314;48.184;11.510;2022-10-31T08:35:10;19.10;;;9.00;;
7661;SDS011;30314;48.184;11.510;2022-10-31T08:37:57;19.87;;;9.20;;
7661;SDS011;30314;48.184;11.510;2022-10-31T08:40:26;20.57;;;8.77;;
7661;SDS011;30314;48.184;11.510;2022-10-31T08:42:55;19.13;;;9.47;;
7661;SDS011;30314;48.184;11.510;2022-10-31T08:45:26;17.47;;;9.40;;
7661;SDS011;30314;48.184;11.510;2022-10-31T08:47:56;20.47;;;9.27;;
7661;SDS011;30314;48.184;11.510;2022-10-31T08:50:26;21.10;;;10.37;;
7661;SDS011;30314;48.184;11.510;2022-10-31T08:52:59;20.23;;;9.57;;
7661;SDS011;30314;48.184;11.510;2022-10-31T08:55:33;20.80;;;10.90;;
7661;SDS011;30314;48.184;11.510;2022-10-31T08:58:04;28.33;;;12.53;;
7661;SDS011;30314;48.184;11.510;2022-10-31T09:00:41;17.07;;;9.73;;
7661;SDS011;30314;48.184;11.510;2022-10-31T09:03:19;17.17;;;11.10;;
7661;SDS011;30314;48.184;11.510;2022-10-31T09:05:47;16.40;;;10.43;;
7661;SDS011;30314;48.184;11.510;2022-10-31T09:08:15;19.30;;;10.87;;
7661;SDS011;30314;48.184;11.510;2022-10-31T09:10:46;22.03;;;10.70;;
7661;SDS011;30314;48.184;11.510;2022-10-31T09:13:19;21.17;;;9.90;;
7661;SDS011;30314;48.184;11.510;2022-10-31T09:16:29;20.73;;;11.07;;
7661;SDS011;30314;48.184;11.510;2022-10-31T09:18:57;29.87;;;10.87;;
7661;SDS011;30314;48.184;11.510;2022-10-31T09:21:26;18.70;;;9.30;;
7661;SDS011;30314;48.184;11.510;2022-10-31T09:23:57;20.93;;;9.43;;
7661;SDS011;30314;48.184;11.510;2022-10-31T09:26:25;20.47;;;8.40;;
7661;SDS011;30314;48.184;11.510;2022-10-31T09:29:02;14.43;;;7.27;;
7661;SDS011;30314;48.184;11.510;2022-10-31T09:31:32;17.43;;;8.53;;
7661;SDS011;30314;48.184;11.510;2022-10-31T09:34:04;17.03;;;7.57;;
7661;SDS011;30314;48.184;11.510;2022-10-31T09:36:35;19.57;;;7.77;;
7661;SDS011;30314;48.184;11.510;2022-10-31T09:39:05;15.90;;;7.43;;
7661;SDS011;30314;48.184;11.510;2022-10-31T09:41:49;11.10;;;5.90;;
7661;SDS011;30314;48.184;11.510;2022-10-31T09:44:30;15.87;;;6.17;;
7661;SDS011;30314;48.184;11.510;2022-10-31T09:47:15;19.43;;;7.30;;
7661;SDS011;30314;48.184;11.510;2022-10-31T09:50:12;14.47;;;6.63;;
7661;SDS011;30314;48.184;11.510;2022-10-31T09:52:48;14.03;;;6.27;;
7661;SDS011;30314;48.184;11.510;2022-10-31T09:55:24;16.67;;;5.93;;
7661;SDS011;30314;48.184;11.510;2022-10-31T09:57:58;9.73;;;5.47;;
7661;SDS011;30314;48.184;11.510;2022-10-31T10:00:28;11.60;;;5.40;;
7661;SDS011;30314;48.184;11.510;2022-10-31T10:03:03;17.67;;;6.20;;
7661;SDS011;30314;48.184;11.510;2022-10-31T10:05:40;11.67;;;4.40;;
7661;SDS011;30314;48.184;11.510;2022-10-31T10:08:23;15.73;;;4.60;;
7661;SDS011;30314;48.184;11.510;2022-10-31T10:10:55;16.27;;;5.00;;
7661;SDS011;30314;48.184;11.510;2022-10-31T10:14:09;11.33;;;4.70;;
7661;SDS011;30314;48.184;11.510;2022-10-31T10:16:56;14.43;;;4.33;;
7661;SDS011;30314;48.184;11.510;2022-10-31T10:19:42;5.90;;;3.30;;
7661;SDS011;30314;48.184;11.510;2022-10-31T10:22:24;12.23;;;4.63;;
7661;SDS011;30314;48.184;11.510;2022-10-31T10:25:09;6.50;;;3.40;;
7661;SDS011;30314;48.184;11.510;2022-10-31T10:27:49;12.40;;;3.40;;
7661;SDS011;30314;48.184;11.510;2022-10-31T10:30:28;13.10;;;3.80;;
7661;SDS011;30314;48.184;11.510;2022-10-31T10:33:02;10.53;;;3.60;;
7661;SDS011;30314;48.184;11.510;2022-10-31T10:35:38;9.93;;;3.30;;
7661;SDS011;30314;48.184;11.510;2022-10-31T10:38:11;12.10;;;4.03;;
7661;SDS011;30314;48.184;11.510;2022-10-31T10:40:44;12.97;;;4.30;;
7661;SDS011;30314;48.184;11.510;2022-10-31T10:43:19;11.97;;;3.40;;
7661;SDS011;30314;48.184;11.510;2022-10-31T10:45:50;8.70;;;4.37;;
7661;SDS011;30314;48.184;11.510;2022-10-31T10:48:43;11.37;;;3.43;;
7661;SDS011;30314;48.184;11.510;2022-10-31T10:51:20;16.90;;;2.90;;
7661;SDS011;30314;48.184;11.510;2022-10-31T10:54:13;19.80;;;3.20;;
7661;SDS011;30314;48.184;11.510;2022-10-31T10:57:01;11.73;;;2.80;;
7661;SDS011;30314;48.184;11.510;2022-10-31T10:59:38;8.73;;;3.07;;
7661;SDS011;30314;48.184;11.510;2022-10-31T11:02:13;11.73;;;3.20;;
7661;SDS011;30314;48.184;11.510;2022-10-31T11:04:45;9.83;;;3.20;;
7661;SDS011;30314;48.184;11.510;2022-10-31T11:07:18;8.17;;;3.10;;
7661;SDS011;30314;48.184;11.510;2022-10-31T11:09:46;11.77;;;2.87;;
7661;SDS011;30314;48.184;11.510;2022-10-31T11:12:19;6.80;;;2.80;;
7661;SDS011;30314;48.184;11.510;2022-10-31T11:14:50;10.23;;;2.70;;
7661;SDS011;30314;48.184;11.510;2022-10-31T11:17:24;9.90;;;2.60;;
7661;SDS011;30314;48.184;11.510;2022-10-31T11:20:02;9.27;;;2.70;;
7661;SDS011;30314;48.184;11.510;2022-10-31T11:22:34;14.07;;;2.53;;
7661;SDS011;30314;48.184;11.510;2022-10-31T11:25:11;11.90;;;2.70;;
7661;SDS011;30314;48.184;11.510;2022-10-31T11:27:50;8.43;;;2.80;;
7661;SDS011;30314;48.184;11.510;2022-10-31T11:30:26;8.63;;;3.10;;
7661;SDS011;30314;48.184;11.510;2022-10-31T11:32:55;9.30;;;3.20;;
7661;SDS011;30314;48.184;11.510;2022-10-31T11:35:24;6.57;;;2.37;;
7661;SDS011;30314;48.184;11.510;2022-10-31T11:38:04;12.00;;;2.70;;
7661;SDS011;30314;48.184;11.510;2022-10-31T11:40:32;7.43;;;2.53;;
7661;SDS011;30314;48.184;11.510;2022-10-31T11:43:00;8.30;;;2.63;;
7661;SDS011;30314;48.184;11.510;2022-10-31T11:45:29;10.90;;;2.93;;
7661;SDS011;30314;48.184;11.510;2022-10-31T11:48:12;16.57;;;2.37;;
7661;SDS011;30314;48.184;11.510;2022-10-31T11:50:47;10.00;;;3.30;;
7661;SDS011;30314;48.184;11.510;2022-10-31T11:53:18;8.73;;;2.60;;
7661;SDS011;30314;48.184;11.510;2022-10-31T11:55:50;4.93;;;2.63;;
7661;SDS011;30314;48.184;11.510;2022-10-31T11:58:28;7.30;;;2.50;;
7661;SDS011;30314;48.184;11.510;2022-10-31T12:01:08;7.93;;;2.70;;
7661;SDS011;30314;48.184;11.510;2022-10-31T12:03:59;4.90;;;2.57;;
7661;SDS011;30314;48.184;11.510;2022-10-31T12:06:33;6.47;;;2.73;;
7661;SDS011;30314;48.184;11.510;2022-10-31T12:09:07;7.70;;;2.10;;
7661;SDS011;30314;48.184;11.510;2022-10-31T12:11:49;7.93;;;2.77;;
7661;SDS011;30314;48.184;11.510;2022-10-31T12:14:49;11.80;;;2.70;;
7661;SDS011;30314;48.184;11.510;2022-10-31T12:17:28;5.03;;;2.10;;
7661;SDS011;30314;48.184;11.510;2022-10-31T12:20:03;18.70;;;3.77;;
7661;SDS011;30314;48.184;11.510;2022-10-31T12:22:46;17.03;;;3.40;;
7661;SDS011;30314;48.184;11.510;2022-10-31T12:25:26;9.10;;;3.20;;
7661;SDS011;30314;48.184;11.510;2022-10-31T12:31:01;20.23;;;3.67;;
7661;SDS011;30314;48.184;11.510;2022-10-31T12:33:40;10.00;;;2.53;;
7661;SDS011;30314;48.184;11.510;2022-10-31T12:36:26;8.83;;;2.37;;
7661;SDS011;30314;48.184;11.510;2022-10-31T12:39:10;12.83;;;3.30;;
7661;SDS011;30314;48.184;11.510;2022-10-31T12:41:49;9.60;;;2.63;;
7661;SDS011;30314;48.184;11.510;2022-10-31T12:44:29;15.40;;;2.93;;
7661;SDS011;30314;48.184;11.510;2022-10-31T12:47:25;10.47;;;2.50;;
7661;SDS011;30314;48.184;11.510;2022-10-31T12:50:08;5.90;;;3.20;;
7661;SDS011;30314;48.184;11.510;2022-10-31T12:52:49;14.47;;;3.40;;
7661;SDS011;30314;48.184;11.510;2022-10-31T12:55:30;10.33;;;2.90;;
7661;SDS011;30314;48.184;11.510;2022-10-31T12:58:10;11.40;;;3.13;;
7661;SDS011;30314;48.184;11.510;2022-10-31T13:00:45;10.50;;;3.33;;
7661;SDS011;30314;48.184;11.510;2022-10-31T13:03:19;9.73;;;2.73;;
7661;SDS011;30314;48.184;11.510;2022-10-31T13:05:53;8.73;;;3.20;;
7661;SDS011;30314;48.184;11.510;2022-10-31T13:08:26;7.87;;;2.93;;
7661;SDS011;30314;48.184;11.510;2022-10-31T13:11:02;11.77;;;3.57;;
7661;SDS011;30314;48.184;11.510;2022-10-31T13:13:39;12.47;;;2.30;;
7661;SDS011;30314;48.184;11.510;2022-10-31T13:16:10;12.10;;;3.40;;
7661;SDS011;30314;48.184;11.510;2022-10-31T13:18:43;11.13;;;2.77;;
7661;SDS011;30314;48.184;11.510;2022-10-31T13:21:16;6.03;;;2.20;;
7661;SDS011;30314;48.184;11.510;2022-10-31T13:23:48;11.10;;;3.20;;
7661;SDS011;30314;48.184;11.510;2022-10-31T13:26:22;9.80;;;3.30;;
7661;SDS011;30314;48.184;11.510;2022-10-31T13:29:02;9.40;;;3.00;;
7661;SDS011;30314;48.184;11.510;2022-10-31T13:31:39;10.00;;;2.93;;
7661;SDS011;30314;48.184;11.510;2022-10-31T13:34:09;8.80;;;2.80;;
7661;SDS011;30314;48.184;11.510;2022-10-31T13:36:48;12.00;;;3.30;;
7661;SDS011;30314;48.184;11.510;2022-10-31T13:39:23;11.73;;;2.80;;
7661;SDS011;30314;48.184;11.510;2022-10-31T13:41:59;7.87;;;3.23;;
7661;SDS011;30314;48.184;11.510;2022-10-31T13:44:34;16.53;;;3.07;;
7661;SDS011;30314;48.184;11.510;2022-10-31T13:47:18;7.20;;;3.23;;
7661;SDS011;30314;48.184;11.510;2022-10-31T13:49:49;10.10;;;3.33;;
7661;SDS011;30314;48.184;11.510;2022-10-31T13:52:22;18.63;;;3.23;;
7661;SDS011;30314;48.184;11.510;2022-10-31T13:54:52;13.80;;;3.67;;
7661;SDS011;30314;48.184;11.510;2022-10-31T13:57:25;9.70;;;3.80;;
7661;SDS011;30314;48.184;11.510;2022-10-31T14:00:03;11.53;;;2.77;;
7661;SDS011;30314;48.184;11.510;2022-10-31T14:02:44;13.40;;;3.33;;
7661;SDS011;30314;48.184;11.510;2022-10-31T14:05:19;12.67;;;3.00;;
7661;SDS011;30314;48.184;11.510;2022-10-31T14:07:51;10.50;;;3.30;;
7661;SDS011;30314;48.184;11.510;2022-10-31T14:10:21;18.20;;;3.80;;
7661;SDS011;30314;48.184;11.510;2022-10-31T14:12:53;8.03;;;3.83;;
7661;SDS011;30314;48.184;11.510;2022-10-31T14:15:31;8.07;;;3.10;;
7661;SDS011;30314;48.184;11.510;2022-10-31T14:18:00;7.33;;;2.83;;
7661;SDS011;30314;48.184;11.510;2022-10-31T14:20:35;9.90;;;3.07;;
7661;SDS011;30314;48.184;11.510;2022-10-31T14:23:12;17.97;;;3.30;;
7661;SDS011;30314;48.184;11.510;2022-10-31T14:26:16;10.03;;;3.70;;
7661;SDS011;30314;48.184;11.510;2022-10-31T14:28:47;7.43;;;2.60;;
7661;SDS011;30314;48.184;11.510;2022-10-31T14:31:31;10.00;;;2.97;;
7661;SDS011;30314;48.184;11.510;2022-10-31T14:34:17;19.43;;;3.87;;
7661;SDS011;30314;48.184;11.510;2022-10-31T14:37:08;8.83;;;3.30;;
7661;SDS011;30314;48.184;11.510;2022-10-31T14:39:55;11.07;;;3.57;;
7661;SDS011;30314;48.184;11.510;2022-10-31T14:42:36;12.13;;;4.33;;
7661;SDS011;30314;48.184;11.510;2022-10-31T14:45:17;15.83;;;3.43;;
7661;SDS011;30314;48.184;11.510;2022-10-31T14:48:06;7.97;;;3.57;;
7661;SDS011;30314;48.184;11.510;2022-10-31T14:50:46;14.93;;;4.97;;
7661;SDS011;30314;48.184;11.510;2022-10-31T14:53:18;17.53;;;4.73;;
7661;SDS011;30314;48.184;11.510;2022-10-31T14:55:51;10.63;;;3.40;;
7661;SDS011;30314;48.184;11.510;2022-10-31T14:58:21;12.60;;;3.80;;
7661;SDS011;30314;48.184;11.510;2022-10-31T15:00:52;8.80;;;4.33;;
7661;SDS011;30314;48.184;11.510;2022-10-31T15:03:25;12.27;;;3.90;;
7661;SDS011;30314;48.184;11.510;2022-10-31T15:05:58;9.47;;;3.90;;
7661;SDS011;30314;48.184;11.510;2022-10-31T15:08:31;12.30;;;4.93;;
7661;SDS011;30314;48.184;11.510;2022-10-31T15:11:09;8.13;;;4.20;;
7661;SDS011;30314;48.184;11.510;2022-10-31T15:13:42;21.20;;;5.90;;
7661;SDS011;30314;48.184;11.510;2022-10-31T15:16:11;19.83;;;5.73;;
7661;SDS011;30314;48.184;11.510;2022-10-31T15:18:46;15.43;;;4.40;;
7661;SDS011;30314;48.184;11.510;2022-10-31T15:21:16;12.77;;;5.03;;
7661;SDS011;30314;48.184;11.510;2022-10-31T15:23:46;14.97;;;5.70;;
7661;SDS011;30314;48.184;11.510;2022-10-31T15:26:16;17.23;;;5.93;;